createdAt,value
2018-04-22T00:02:07.409Z,95292.58
2018-04-22T00:04:34.077Z,95294.72
2018-04-22T00:07:00.799Z,95290.69
2018-04-22T00:09:27.432Z,95273.42
2018-04-22T00:11:54.151Z,95282.23
2018-04-22T00:14:20.761Z,95278.34
2018-04-22T00:16:47.432Z,95276.98
2018-04-22T00:19:14.067Z,95279.50
2018-04-22T00:21:40.713Z,95282.27
2018-04-22T00:24:07.345Z,95271.57
2018-04-22T00:26:33.986Z,95275.48
2018-04-22T00:29:00.661Z,95277.52
2018-04-22T00:31:27.277Z,95271.95
2018-04-22T00:33:53.910Z,95272.20
2018-04-22T00:36:20.578Z,95267.55
2018-04-22T00:38:47.182Z,95270.45
2018-04-22T00:41:13.854Z,95274.13
2018-04-22T00:43:40.488Z,95270.59
2018-04-22T00:46:07.170Z,95279.28
2018-04-22T00:48:33.799Z,95283.72
2018-04-22T00:51:00.446Z,95287.51
2018-04-22T00:53:27.188Z,95285.59
2018-04-22T00:55:53.825Z,95285.48
2018-04-22T00:58:20.499Z,95283.61
2018-04-22T01:00:47.189Z,95288.80
2018-04-22T01:03:14.090Z,95294.70
2018-04-22T01:05:40.725Z,95291.32
2018-04-22T01:08:07.446Z,95298.48
2018-04-22T01:10:34.072Z,95300.88
2018-04-22T01:13:00.700Z,95295.23
2018-04-22T01:15:27.389Z,95292.95
2018-04-22T01:17:54.030Z,95294.87
2018-04-22T01:20:20.663Z,95297.00
2018-04-22T01:22:47.343Z,95293.09
2018-04-22T01:25:14.009Z,95294.73
2018-04-22T01:27:40.645Z,95290.45
2018-04-22T01:30:07.317Z,95287.70
2018-04-22T01:32:33.958Z,95292.72
2018-04-22T01:35:00.586Z,95291.73
2018-04-22T01:37:27.258Z,95288.58
2018-04-22T01:39:53.927Z,95284.92
2018-04-22T01:42:20.612Z,95276.38
2018-04-22T01:44:47.246Z,95282.94
2018-04-22T01:47:13.888Z,95278.25
2018-04-22T01:49:40.560Z,95277.89
2018-04-22T01:52:07.203Z,95276.25
2018-04-22T01:54:33.882Z,95269.19
2018-04-22T01:57:00.512Z,95275.13
2018-04-22T01:59:29.069Z,95273.99
2018-04-22T02:01:53.855Z,95271.22
2018-04-22T02:04:20.484Z,95263.92
2018-04-22T02:06:47.136Z,95250.45
2018-04-22T02:09:13.803Z,95245.43
2018-04-22T02:11:40.439Z,95252.46
2018-04-22T02:14:07.050Z,95252.86
2018-04-22T02:16:33.759Z,95257.89
2018-04-22T02:19:00.358Z,95253.73
2018-04-22T02:21:26.994Z,95260.55
2018-04-22T02:23:53.643Z,95259.66
2018-04-22T02:26:20.304Z,95262.95
2018-04-22T02:28:46.992Z,95255.39
2018-04-22T02:31:13.665Z,95252.11
2018-04-22T02:33:40.331Z,95253.63
2018-04-22T02:36:06.936Z,95250.59
2018-04-22T02:38:33.605Z,95250.22
2018-04-22T02:41:00.232Z,95247.06
2018-04-22T02:43:26.880Z,95248.86
2018-04-22T02:45:53.524Z,95256.16
2018-04-22T02:48:20.132Z,95255.91
2018-04-22T02:50:46.814Z,95258.29
2018-04-22T02:53:13.448Z,95250.98
2018-04-22T02:55:40.086Z,95246.20
2018-04-22T02:58:06.747Z,95255.90
2018-04-22T03:00:33.387Z,95249.61
2018-04-22T03:02:59.987Z,95246.73
2018-04-22T03:05:26.616Z,95243.67
2018-04-22T03:07:53.292Z,95241.44
2018-04-22T03:10:19.897Z,95237.90
2018-04-22T03:12:46.574Z,95241.15
2018-04-22T03:15:13.236Z,95244.83
2018-04-22T03:17:39.914Z,95241.55
2018-04-22T03:20:06.509Z,95238.16
2018-04-22T03:22:33.180Z,95241.17
2018-04-22T03:24:59.865Z,95243.05
2018-04-22T03:27:26.470Z,95250.75
2018-04-22T03:29:53.183Z,95249.12
2018-04-22T03:32:19.782Z,95249.22
2018-04-22T03:34:46.464Z,95247.22
2018-04-22T03:37:13.134Z,95254.29
2018-04-22T03:39:39.821Z,95258.92
2018-04-22T03:42:06.419Z,95260.70
2018-04-22T03:44:33.057Z,95274.42
2018-04-22T03:46:59.700Z,95276.55
2018-04-22T03:49:26.392Z,95273.68
2018-04-22T03:51:53.026Z,95278.06
2018-04-22T03:54:19.731Z,95284.50
2018-04-22T03:56:46.329Z,95286.62
2018-04-22T03:59:13.047Z,95294.55
2018-04-22T04:01:39.726Z,95295.06
2018-04-22T04:04:06.366Z,95299.19
2018-04-22T04:06:33.085Z,95297.77
2018-04-22T04:08:59.681Z,95300.99
2018-04-22T04:11:26.361Z,95297.58
2018-04-22T04:13:52.987Z,95299.78
2018-04-22T04:16:19.727Z,95298.96
2018-04-22T04:18:46.393Z,95296.11
2018-04-22T04:21:12.998Z,95299.27
2018-04-22T04:23:39.638Z,95297.25
2018-04-22T04:26:06.273Z,95302.43
2018-04-22T04:28:32.976Z,95297.69
2018-04-22T04:30:59.626Z,95294.69
2018-04-22T04:33:26.308Z,95287.30
2018-04-22T04:35:52.953Z,95293.50
2018-04-22T04:38:19.596Z,95297.73
2018-04-22T04:40:46.230Z,95296.22
2018-04-22T04:43:12.915Z,95301.02
2018-04-22T04:45:39.578Z,95295.52
2018-04-22T04:48:06.182Z,95290.62
2018-04-22T04:50:32.859Z,95283.41
2018-04-22T04:52:59.497Z,95283.90
2018-04-22T04:55:26.130Z,95284.38
2018-04-22T04:57:52.868Z,95281.10
2018-04-22T05:00:19.465Z,95280.80
2018-04-22T05:02:46.099Z,95268.53
2018-04-22T05:05:12.814Z,95276.05
2018-04-22T05:07:39.466Z,95266.91
2018-04-22T05:10:06.157Z,95261.58
2018-04-22T05:12:32.842Z,95262.94
2018-04-22T05:14:59.472Z,95262.69
2018-04-22T05:17:26.159Z,95255.58
2018-04-22T05:19:52.813Z,95258.83
2018-04-22T05:22:19.517Z,95263.50
2018-04-22T05:24:46.130Z,95260.28
2018-04-22T05:27:12.812Z,95259.86
2018-04-22T05:29:39.444Z,95259.29
2018-04-22T05:32:06.117Z,95255.08
2018-04-22T05:34:32.893Z,95264.41
2018-04-22T05:36:59.491Z,95252.87
2018-04-22T05:39:26.169Z,95259.03
2018-04-22T05:41:52.805Z,95262.90
2018-04-22T05:44:19.486Z,95264.84
2018-04-22T05:46:46.129Z,95271.50
2018-04-22T05:49:12.900Z,95272.31
2018-04-22T05:51:39.541Z,95270.03
2018-04-22T05:54:06.204Z,95277.63
2018-04-22T05:56:32.833Z,95269.86
2018-04-22T05:58:59.479Z,95268.69
2018-04-22T06:01:26.124Z,95268.93
2018-04-22T06:03:52.798Z,95269.82
2018-04-22T06:06:19.437Z,95271.08
2018-04-22T06:08:46.113Z,95269.77
2018-04-22T06:11:12.775Z,95275.24
2018-04-22T06:13:39.444Z,95274.59
2018-04-22T06:16:06.095Z,95275.63
2018-04-22T06:18:32.797Z,95270.63
2018-04-22T06:20:59.402Z,95275.02
2018-04-22T06:23:26.038Z,95266.61
2018-04-22T06:25:52.762Z,95262.28
2018-04-22T06:28:19.377Z,95267.47
2018-04-22T06:30:46.081Z,95272.12
2018-04-22T06:33:12.680Z,95268.66
2018-04-22T06:35:39.369Z,95259.22
2018-04-22T06:38:05.976Z,95254.50
2018-04-22T06:40:32.606Z,95256.08
2018-04-22T06:42:59.244Z,95252.62
2018-04-22T06:45:25.875Z,95245.33
2018-04-22T06:47:52.526Z,95250.87
2018-04-22T06:50:19.156Z,95246.57
2018-04-22T06:52:45.797Z,95245.98
2018-04-22T06:55:12.435Z,95247.02
2018-04-22T06:57:39.058Z,95244.05
2018-04-22T07:00:05.743Z,95243.23
2018-04-22T07:02:32.342Z,95240.81
2018-04-22T07:04:58.978Z,95242.79
2018-04-22T07:07:25.646Z,95238.97
2018-04-22T07:09:52.246Z,95241.52
2018-04-22T07:12:18.916Z,95236.63
2018-04-22T07:14:45.546Z,95237.61
2018-04-22T07:17:12.149Z,95231.71
2018-04-22T07:19:38.819Z,95248.17
2018-04-22T07:22:05.416Z,95234.70
2018-04-22T07:24:32.097Z,95236.11
2018-04-22T07:26:58.732Z,95230.50
2018-04-22T07:29:25.331Z,95230.66
2018-04-22T07:31:51.979Z,95230.22
2018-04-22T07:34:18.645Z,95223.95
2018-04-22T07:36:45.244Z,95223.86
2018-04-22T07:39:11.921Z,95226.72
2018-04-22T07:41:38.550Z,95221.87
2018-04-22T07:44:05.189Z,95226.72
2018-04-22T07:46:31.814Z,95221.92
2018-04-22T07:48:58.504Z,95230.78
2018-04-22T07:51:25.111Z,95225.96
2018-04-22T07:53:51.750Z,95229.97
2018-04-22T07:56:18.387Z,95230.67
2018-04-22T07:58:45.039Z,95223.67
2018-04-22T08:01:11.669Z,95227.50
2018-04-22T08:03:38.307Z,95224.03
2018-04-22T08:06:04.980Z,95222.69
2018-04-22T08:08:31.575Z,95225.39
2018-04-22T08:10:58.212Z,95229.28
2018-04-22T08:13:24.848Z,95230.09
2018-04-22T08:15:51.489Z,95218.19
2018-04-22T08:18:18.130Z,95220.13
2018-04-22T08:20:44.795Z,95222.48
2018-04-22T08:23:11.401Z,95217.92
2018-04-22T08:25:38.095Z,95216.33
2018-04-22T08:28:04.695Z,95219.06
2018-04-22T08:30:31.331Z,95220.83
2018-04-22T08:32:58.015Z,95220.89
2018-04-22T08:35:24.617Z,95221.36
2018-04-22T08:37:51.260Z,95217.34
2018-04-22T08:40:17.895Z,95211.48
2018-04-22T08:42:44.570Z,95209.89
2018-04-22T08:45:11.167Z,95206.78
2018-04-22T08:47:37.941Z,95206.03
2018-04-22T08:50:04.596Z,95198.42
2018-04-22T08:52:31.180Z,95199.81
2018-04-22T08:54:57.852Z,95191.20
2018-04-22T08:57:24.515Z,95194.67
2018-04-22T08:59:51.125Z,95182.89
2018-04-22T09:02:17.834Z,95186.14
2018-04-22T09:04:44.608Z,95182.45
2018-04-22T09:07:11.257Z,95174.36
2018-04-22T09:09:38.029Z,95170.28
2018-04-22T09:12:04.661Z,95167.59
2018-04-22T09:14:31.297Z,95165.50
2018-04-22T09:16:57.910Z,95168.66
2018-04-22T09:19:24.588Z,95163.20
2018-04-22T09:21:51.227Z,95159.52
2018-04-22T09:24:17.829Z,95156.36
2018-04-22T09:26:44.504Z,95149.91
2018-04-22T09:29:11.153Z,95154.35
2018-04-22T09:31:37.749Z,95152.06
2018-04-22T09:34:04.429Z,95153.34
2018-04-22T09:36:31.060Z,95143.70
2018-04-22T09:38:57.657Z,95141.28
2018-04-22T09:41:24.651Z,95145.17
2018-04-22T09:43:51.294Z,95143.29
2018-04-22T09:46:17.920Z,95142.19
2018-04-22T09:48:44.525Z,95137.37
2018-04-22T09:51:11.167Z,95140.63
2018-04-22T09:53:37.801Z,95139.08
2018-04-22T09:56:04.473Z,95133.89
2018-04-22T09:58:31.116Z,95133.22
2018-04-22T10:00:57.714Z,95132.69
2018-04-22T10:03:24.394Z,95133.91
2018-04-22T10:05:51.025Z,95134.41
2018-04-22T10:08:17.658Z,95135.05
2018-04-22T10:10:44.354Z,95132.11
2018-04-22T10:13:11.003Z,95133.82
2018-04-22T10:15:37.664Z,95129.41
2018-04-22T10:18:04.298Z,95128.77
2018-04-22T10:20:30.939Z,95126.73
2018-04-22T10:22:57.540Z,95127.11
2018-04-22T10:25:24.179Z,95112.16
2018-04-22T10:27:50.814Z,95121.53
2018-04-22T10:30:17.454Z,95112.91
2018-04-22T10:32:44.085Z,95109.48
2018-04-22T10:35:10.726Z,95109.22
2018-04-22T10:37:37.360Z,95102.71
2018-04-22T10:40:04.016Z,95104.10
2018-04-22T10:42:30.628Z,95102.33
2018-04-22T10:44:57.269Z,95101.28
2018-04-22T10:47:23.893Z,95091.14
2018-04-22T10:49:50.561Z,95093.37
2018-04-22T10:52:17.213Z,95085.24
2018-04-22T10:54:43.976Z,95082.55
2018-04-22T10:57:10.650Z,95074.73
2018-04-22T10:59:37.283Z,95073.91
2018-04-22T11:02:05.197Z,95071.06
2018-04-22T11:04:30.525Z,95075.94
2018-04-22T11:06:57.197Z,95068.27
2018-04-22T11:09:23.793Z,95075.88
2018-04-22T11:11:50.491Z,95063.63
2018-04-22T11:14:17.148Z,95069.83
2018-04-22T11:16:43.716Z,95063.72
2018-04-22T11:19:10.360Z,95057.28
2018-04-22T11:21:37.021Z,95057.59
2018-04-22T11:24:03.626Z,95049.22
2018-04-22T11:26:30.354Z,95052.02
2018-04-22T11:28:56.949Z,95055.22
2018-04-22T11:31:23.609Z,95046.17
2018-04-22T11:33:50.313Z,95046.50
2018-04-22T11:36:16.950Z,95034.86
2018-04-22T11:38:43.620Z,95039.35
2018-04-22T11:41:10.253Z,95034.05
2018-04-22T11:43:36.904Z,95033.84
2018-04-22T11:46:04.872Z,95035.66
2018-04-22T11:48:30.172Z,95026.42
2018-04-22T11:50:56.945Z,95030.98
2018-04-22T11:53:23.557Z,95024.21
2018-04-22T11:55:50.189Z,95026.14
2018-04-22T11:58:16.859Z,95024.74
2018-04-22T12:00:43.499Z,95024.37
2018-04-22T12:03:10.164Z,95016.93
2018-04-22T12:05:36.804Z,95008.38
2018-04-22T12:08:03.440Z,95017.22
2018-04-22T12:10:30.083Z,95012.11
2018-04-22T12:12:56.855Z,95011.66
2018-04-22T12:15:23.514Z,95008.50
2018-04-22T12:17:50.150Z,95008.01
2018-04-22T12:20:16.790Z,94999.98
2018-04-22T12:22:43.435Z,94998.66
2018-04-22T12:25:10.080Z,94995.61
2018-04-22T12:27:36.711Z,94985.32
2018-04-22T12:30:03.421Z,94980.38
2018-04-22T12:32:30.059Z,94982.31
2018-04-22T12:34:56.707Z,94979.41
2018-04-22T12:37:23.337Z,94971.94
2018-04-22T12:39:49.974Z,94968.37
2018-04-22T12:42:16.614Z,94967.99
2018-04-22T12:44:43.250Z,94971.11
2018-04-22T12:47:09.929Z,94963.58
2018-04-22T12:49:36.559Z,94957.31
2018-04-22T12:52:03.169Z,94961.16
2018-04-22T12:54:29.838Z,94954.83
2018-04-22T12:56:56.439Z,94957.42
2018-04-22T12:59:23.117Z,94951.95
2018-04-22T13:01:49.783Z,94955.27
2018-04-22T13:04:16.381Z,94946.53
2018-04-22T13:06:43.029Z,94950.87
2018-04-22T13:09:09.707Z,94940.88
2018-04-22T13:11:36.356Z,94944.15
2018-04-22T13:14:03.019Z,94937.70
2018-04-22T13:16:29.671Z,94941.84
2018-04-22T13:18:56.279Z,94933.59
2018-04-22T13:21:22.956Z,94930.80
2018-04-22T13:23:49.562Z,94930.23
2018-04-22T13:26:16.223Z,94923.79
2018-04-22T13:28:42.861Z,94926.83
2018-04-22T13:31:09.455Z,94916.99
2018-04-22T13:33:36.168Z,94919.27
2018-04-22T13:36:02.771Z,94916.66
2018-04-22T13:38:29.409Z,94916.39
2018-04-22T13:40:56.083Z,94913.79
2018-04-22T13:43:22.779Z,94907.56
2018-04-22T13:45:49.386Z,94909.61
2018-04-22T13:48:16.024Z,94912.62
2018-04-22T13:50:42.726Z,94911.59
2018-04-22T13:53:09.331Z,94902.77
2018-04-22T13:55:38.176Z,94893.03
2018-04-22T13:58:04.809Z,94898.88
2018-04-22T14:00:31.416Z,94895.07
2018-04-22T14:02:58.049Z,94904.27
2018-04-22T14:05:24.717Z,94898.23
2018-04-22T14:07:51.351Z,94893.45
2018-04-22T14:10:18.024Z,94894.40
2018-04-22T14:12:44.668Z,94890.97
2018-04-22T14:15:11.346Z,94894.70
2018-04-22T14:17:37.954Z,94890.32
2018-04-22T14:20:04.661Z,94889.00
2018-04-22T14:22:31.333Z,94891.98
2018-04-22T14:24:58.013Z,94887.50
2018-04-22T14:27:24.610Z,94885.91
2018-04-22T14:29:51.322Z,94892.55
2018-04-22T14:32:17.952Z,94885.34
2018-04-22T14:34:44.583Z,94888.63
2018-04-22T14:37:11.182Z,94883.80
2018-04-22T14:39:37.863Z,94883.94
2018-04-22T14:42:04.461Z,94883.91
2018-04-22T14:44:31.179Z,94885.71
2018-04-22T14:46:57.820Z,94878.11
2018-04-22T14:49:24.422Z,94882.43
2018-04-22T14:51:51.056Z,94882.03
2018-04-22T14:54:17.722Z,94880.55
2018-04-22T14:56:44.367Z,94876.94
2018-04-22T14:59:11.043Z,94878.22
2018-04-22T15:01:37.756Z,94879.27
2018-04-22T15:04:04.383Z,94880.47
2018-04-22T15:06:31.142Z,94879.94
2018-04-22T15:08:57.808Z,94882.33
2018-04-22T15:11:24.413Z,94878.06
2018-04-22T15:13:51.090Z,94875.45
2018-04-22T15:16:17.745Z,94877.39
2018-04-22T15:18:45.852Z,94874.00
2018-04-22T15:21:11.023Z,94870.22
2018-04-22T15:23:37.752Z,94877.50
2018-04-22T15:26:04.460Z,94874.56
2018-04-22T15:28:31.102Z,94872.74
2018-04-22T15:30:57.749Z,94875.53
2018-04-22T15:33:24.379Z,94871.34
2018-04-22T15:35:51.025Z,94867.73
2018-04-22T15:38:17.707Z,94870.17
2018-04-22T15:40:44.384Z,94870.25
2018-04-22T15:43:11.029Z,94865.47
2018-04-22T15:45:37.630Z,94867.55
2018-04-22T15:48:04.269Z,94863.73
2018-04-22T15:50:30.946Z,94861.34
2018-04-22T15:52:57.585Z,94860.27
2018-04-22T15:55:24.322Z,94862.03
2018-04-22T15:57:50.999Z,94866.06
2018-04-22T16:00:17.600Z,94859.81
2018-04-22T16:02:44.307Z,94859.59
2018-04-22T16:05:10.958Z,94863.36
2018-04-22T16:07:37.591Z,94864.02
2018-04-22T16:10:04.279Z,94865.80
2018-04-22T16:12:30.908Z,94868.75
2018-04-22T16:14:57.546Z,94861.98
2018-04-22T16:17:24.213Z,94862.81
2018-04-22T16:19:50.806Z,94867.78
2018-04-22T16:22:17.448Z,94867.52
2018-04-22T16:24:44.091Z,94871.09
2018-04-22T16:27:10.726Z,94873.07
2018-04-22T16:29:37.403Z,94873.53
2018-04-22T16:32:04.039Z,94879.56
2018-04-22T16:34:30.710Z,94876.94
2018-04-22T16:36:57.313Z,94884.90
2018-04-22T16:39:23.987Z,94880.23
2018-04-22T16:41:50.593Z,94888.27
2018-04-22T16:44:17.265Z,94889.29
2018-04-22T16:46:43.928Z,94891.33
2018-04-22T16:49:10.524Z,94890.50
2018-04-22T16:51:37.166Z,94890.12
2018-04-22T16:54:03.839Z,94890.20
2018-04-22T16:56:30.519Z,94891.16
2018-04-22T16:58:57.187Z,94897.91
2018-04-22T17:01:23.787Z,94902.84
2018-04-22T17:03:50.431Z,94900.02
2018-04-22T17:06:17.145Z,94896.40
2018-04-22T17:08:43.814Z,94909.97
2018-04-22T17:11:10.488Z,94905.56
2018-04-22T17:13:37.131Z,94903.80
2018-04-22T17:16:03.797Z,94904.70
2018-04-22T17:18:30.442Z,94911.41
2018-04-22T17:20:57.076Z,94911.55
2018-04-22T17:23:23.828Z,94922.23
2018-04-22T17:25:50.434Z,94918.05
2018-04-22T17:28:17.080Z,94921.17
2018-04-22T17:30:44.746Z,94926.75
2018-04-22T17:33:10.374Z,94930.73
2018-04-22T17:35:37.020Z,94936.66
2018-04-22T17:38:03.652Z,94933.37
2018-04-22T17:40:30.332Z,94929.48
2018-04-22T17:42:56.970Z,94940.42
2018-04-22T17:45:23.641Z,94931.75
2018-04-22T17:47:50.232Z,94935.55
2018-04-22T17:50:16.908Z,94942.64
2018-04-22T17:52:43.507Z,94942.33
2018-04-22T17:55:10.193Z,94942.04
2018-04-22T17:57:36.818Z,94948.51
2018-04-22T18:00:03.454Z,94958.42
2018-04-22T18:02:30.093Z,94960.30
2018-04-22T18:04:56.770Z,94965.02
2018-04-22T18:07:23.413Z,94959.53
2018-04-22T18:09:50.049Z,94972.38
2018-04-22T18:12:16.719Z,94979.61
2018-04-22T18:14:43.334Z,94973.95
2018-04-22T18:17:09.966Z,94979.30
2018-04-22T18:19:36.676Z,94978.55
2018-04-22T18:22:03.270Z,94977.14
2018-04-22T18:24:29.934Z,94987.42
2018-04-22T18:26:56.539Z,94982.38
2018-04-22T18:29:23.208Z,94990.16
2018-04-22T18:31:49.881Z,94995.73
2018-04-22T18:34:16.518Z,94992.27
2018-04-22T18:36:43.187Z,94987.74
2018-04-22T18:39:09.864Z,94987.89
2018-04-22T18:41:36.479Z,94997.56
2018-04-22T18:44:03.187Z,94996.58
2018-04-22T18:46:29.790Z,95000.18
2018-04-22T18:48:56.469Z,94998.85
2018-04-22T18:51:23.173Z,95002.48
2018-04-22T18:53:49.810Z,95005.91
2018-04-22T18:56:16.459Z,95007.31
2018-04-22T18:58:43.133Z,95008.50
2018-04-22T19:01:09.767Z,95006.61
2018-04-22T19:03:36.404Z,95009.02
2018-04-22T19:06:03.033Z,95007.95
2018-04-22T19:08:29.672Z,95009.09
2018-04-22T19:10:56.307Z,95010.10
2018-04-22T19:13:22.947Z,95016.11
2018-04-22T19:15:49.579Z,95016.55
2018-04-22T19:18:16.264Z,95017.22
2018-04-22T19:20:42.980Z,95013.42
2018-04-22T19:23:09.581Z,95016.37
2018-04-22T19:25:36.211Z,95016.06
2018-04-22T19:28:02.847Z,95017.98
2018-04-22T19:30:29.529Z,95022.09
2018-04-22T19:32:56.196Z,95019.17
2018-04-22T19:35:22.848Z,95025.27
2018-04-22T19:37:49.482Z,95018.24
2018-04-22T19:40:16.146Z,95019.63
2018-04-22T19:42:42.778Z,95027.23
2018-04-22T19:45:09.426Z,95015.69
2018-04-22T19:47:36.062Z,95008.00
2018-04-22T19:50:02.733Z,95020.06
2018-04-22T19:52:29.370Z,95028.36
2018-04-22T19:54:56.073Z,95025.95
2018-04-22T19:57:25.845Z,95026.39
2018-04-22T19:59:52.451Z,95024.25
2018-04-22T20:02:19.100Z,95023.61
2018-04-22T20:04:45.766Z,95028.73
2018-04-22T20:07:12.471Z,95021.02
2018-04-22T20:09:39.073Z,95020.53
2018-04-22T20:12:05.741Z,95023.55
2018-04-22T20:14:32.391Z,95030.19
2018-04-22T20:16:58.998Z,95022.73
2018-04-22T20:19:25.716Z,95020.20
2018-04-22T20:21:52.351Z,95024.13
2018-04-22T20:24:18.984Z,95025.95
2018-04-22T20:26:45.641Z,95025.20
2018-04-22T20:29:12.282Z,95024.64
2018-04-22T20:31:38.995Z,95030.16
2018-04-22T20:34:05.636Z,95038.97
2018-04-22T20:36:32.270Z,95018.77
2018-04-22T20:38:58.945Z,95032.44
2018-04-22T20:41:25.632Z,95033.02
2018-04-22T20:43:52.265Z,95038.64
2018-04-22T20:46:18.870Z,95039.97
2018-04-22T20:48:45.530Z,95039.08
2018-04-22T20:51:12.168Z,95040.48
2018-04-22T20:53:38.895Z,95041.80
2018-04-22T20:56:05.546Z,95048.89
2018-04-22T20:58:32.222Z,95046.80
2018-04-22T21:00:58.888Z,95045.36
2018-04-22T21:03:25.591Z,95047.17
2018-04-22T21:05:52.360Z,95042.80
2018-04-22T21:08:19.039Z,95045.67
2018-04-22T21:10:45.682Z,95045.98
2018-04-22T21:13:12.313Z,95049.02
2018-04-22T21:15:38.914Z,95043.37
2018-04-22T21:18:05.582Z,95044.57
2018-04-22T21:20:32.212Z,95050.20
2018-04-22T21:22:58.853Z,95054.69
2018-04-22T21:25:25.529Z,95058.86
2018-04-22T21:27:52.171Z,95059.93
2018-04-22T21:30:18.849Z,95060.31
2018-04-22T21:32:45.470Z,95058.59
2018-04-22T21:35:12.133Z,95057.08
2018-04-22T21:37:38.808Z,95063.02
2018-04-22T21:40:05.483Z,95060.62
2018-04-22T21:42:32.130Z,95065.09
2018-04-22T21:44:58.795Z,95062.31
2018-04-22T21:47:25.507Z,95071.94
2018-04-22T21:49:52.102Z,95063.47
2018-04-22T21:52:18.770Z,95067.81
2018-04-22T21:54:45.477Z,95061.87
2018-04-22T21:57:12.118Z,95058.12
2018-04-22T21:59:38.791Z,95062.67
2018-04-22T22:02:05.449Z,95069.18
2018-04-22T22:04:32.187Z,95067.03
2018-04-22T22:06:58.790Z,95070.33
2018-04-22T22:09:25.439Z,95065.78
2018-04-22T22:11:52.148Z,95060.50
2018-04-22T22:14:18.776Z,95057.86
2018-04-22T22:16:45.421Z,95066.00
2018-04-22T22:19:12.062Z,95064.23
2018-04-22T22:21:38.788Z,95061.45
2018-04-22T22:24:05.389Z,95060.63
2018-04-22T22:26:32.062Z,95061.14
2018-04-22T22:28:58.744Z,95054.68
2018-04-22T22:31:25.408Z,95053.22
2018-04-22T22:33:52.007Z,95052.25
2018-04-22T22:36:18.757Z,95052.00
2018-04-22T22:38:45.402Z,95051.88
2018-04-22T22:41:12.034Z,95049.52
2018-04-22T22:43:38.701Z,95054.42
2018-04-22T22:46:05.345Z,95052.60
2018-04-22T22:48:32.003Z,95049.28
2018-04-22T22:50:58.632Z,95053.84
2018-04-22T22:53:25.321Z,95045.80
2018-04-22T22:55:51.956Z,95054.41
2018-04-22T22:58:18.554Z,95054.41
2018-04-22T23:00:45.200Z,95053.70
2018-04-22T23:03:11.902Z,95045.22
2018-04-22T23:05:38.531Z,95042.95
2018-04-22T23:08:05.177Z,95046.03
2018-04-22T23:10:31.811Z,95042.36
2018-04-22T23:12:58.515Z,95046.72
2018-04-22T23:15:25.189Z,95055.02
2018-04-22T23:17:51.788Z,95044.05
2018-04-22T23:20:18.426Z,95046.72
2018-04-22T23:22:45.096Z,95045.77
2018-04-22T23:25:11.737Z,95045.77
2018-04-22T23:27:38.377Z,95041.50
2018-04-22T23:30:05.087Z,95046.06
2018-04-22T23:32:31.689Z,95052.76
2018-04-22T23:34:58.317Z,95043.83
2018-04-22T23:37:25.032Z,95041.89
2018-04-22T23:39:51.660Z,95045.98
2018-04-22T23:42:19.837Z,95043.59
2018-04-22T23:44:44.904Z,95039.33
2018-04-22T23:47:11.574Z,95034.54
2018-04-22T23:49:38.246Z,95039.72
2018-04-22T23:52:04.920Z,95039.88
2018-04-22T23:54:31.595Z,95039.25
2018-04-22T23:56:58.197Z,95040.39
2018-04-22T23:59:24.840Z,95039.92
